sensor_id;sensor_type;location;lat;lon;timestamp;pressure;altitude;pressure_sealevel;temperature;humidity
65131;BME280;51709;54.912;8.316;2023-03-11T00:00:22;99973.09;;;1.54;61.20
65131;BME280;51709;54.912;8.316;2023-03-11T00:05:46;99978.19;;;1.63;61.09
65131;BME280;51709;54.912;8.316;2023-03-11T00:11:06;99986.63;;;1.67;61.32
65131;BME280;51709;54.912;8.316;2023-03-11T00:16:27;100003.50;;;1.63;61.28
65131;BME280;51709;54.912;8.316;2023-03-11T00:21:48;100016.13;;;1.59;61.66
65131;BME280;51709;54.912;8.316;2023-03-11T00:27:08;100022.03;;;1.62;61.65
65131;BME280;51709;54.912;8.316;2023-03-11T00:32:29;100033.84;;;1.71;61.60
65131;BME280;51709;54.912;8.316;2023-03-11T00:37:54;100041.44;;;1.83;61.47
65131;BME280;51709;54.912;8.316;2023-03-11T00:43:16;100048.22;;;1.88;61.53
65131;BME280;51709;54.912;8.316;2023-03-11T00:48:37;100054.13;;;1.87;61.64
65131;BME280;51709;54.912;8.316;2023-03-11T00:53:57;100064.25;;;1.85;61.81
65131;BME280;51709;54.912;8.316;2023-03-11T00:59:21;100081.94;;;1.87;61.85
65131;BME280;51709;54.912;8.316;2023-03-11T01:04:42;100090.38;;;1.89;61.59
65131;BME280;51709;54.912;8.316;2023-03-11T01:10:03;100088.69;;;1.89;61.84
65131;BME280;51709;54.912;8.316;2023-03-11T01:15:31;100092.88;;;1.75;62.22
65131;BME280;51709;54.912;8.316;2023-03-11T01:20:52;100112.25;;;1.68;62.17
65131;BME280;51709;54.912;8.316;2023-03-11T01:26:13;100115.63;;;1.67;62.02
65131;BME280;51709;54.912;8.316;2023-03-11T01:31:35;100124.03;;;1.57;62.39
65131;BME280;51709;54.912;8.316;2023-03-11T01:36:55;100113.84;;;1.44;62.60
65131;BME280;51709;54.912;8.316;2023-03-11T01:42:16;100133.22;;;1.41;62.51
65131;BME280;51709;54.912;8.316;2023-03-11T01:47:38;100137.41;;;1.35;62.57
65131;BME280;51709;54.912;8.316;2023-03-11T01:53:01;100153.31;;;1.23;62.89
65131;BME280;51709;54.912;8.316;2023-03-11T01:58:27;100165.06;;;1.14;62.98
65131;BME280;51709;54.912;8.316;2023-03-11T02:03:52;100154.13;;;1.16;62.90
65131;BME280;51709;54.912;8.316;2023-03-11T02:09:14;100161.75;;;1.19;62.92
65131;BME280;51709;54.912;8.316;2023-03-11T02:14:38;100171.00;;;1.23;62.88
65131;BME280;51709;54.912;8.316;2023-03-11T02:20:13;100171.06;;;1.30;62.97
65131;BME280;51709;54.912;8.316;2023-03-11T02:26:00;100179.47;;;1.29;63.12
65131;BME280;51709;54.912;8.316;2023-03-11T02:31:25;100182.00;;;1.27;62.83
65131;BME280;51709;54.912;8.316;2023-03-11T02:36:45;100191.25;;;1.25;62.97
65131;BME280;51709;54.912;8.316;2023-03-11T02:47:34;100189.56;;;1.24;63.04
65131;BME280;51709;54.912;8.316;2023-03-11T02:52:58;100198.84;;;1.27;63.17
65131;BME280;51709;54.912;8.316;2023-03-11T02:58:19;100207.25;;;1.26;63.19
65131;BME280;51709;54.912;8.316;2023-03-11T03:03:40;100214.84;;;1.24;63.14
65131;BME280;51709;54.912;8.316;2023-03-11T03:09:00;100226.63;;;1.23;63.18
65131;BME280;51709;54.912;8.316;2023-03-11T03:14:21;100232.53;;;1.24;63.16
65131;BME280;51709;54.912;8.316;2023-03-11T03:19:43;100235.06;;;1.22;63.11
65131;BME280;51709;54.912;8.316;2023-03-11T03:25:05;100239.31;;;1.30;63.13
65131;BME280;51709;54.912;8.316;2023-03-11T03:30:29;100246.19;;;1.46;63.02
65131;BME280;51709;54.912;8.316;2023-03-11T03:35:49;100262.28;;;1.61;62.58
65131;BME280;51709;54.912;8.316;2023-03-11T03:41:21;100265.66;;;1.63;62.73
65131;BME280;51709;54.912;8.316;2023-03-11T03:46:42;100258.09;;;1.66;62.42
65131;BME280;51709;54.912;8.316;2023-03-11T03:52:06;100269.13;;;1.76;62.55
65131;BME280;51709;54.912;8.316;2023-03-11T03:57:29;100278.41;;;1.74;62.68
65131;BME280;51709;54.912;8.316;2023-03-11T04:02:50;100276.59;;;1.56;63.21
65131;BME280;51709;54.912;8.316;2023-03-11T04:08:19;100273.94;;;1.40;63.28
65131;BME280;51709;54.912;8.316;2023-03-11T04:13:39;100284.81;;;1.30;63.48
65131;BME280;51709;54.912;8.316;2023-03-11T04:19:01;100281.47;;;1.29;63.47
65131;BME280;51709;54.912;8.316;2023-03-11T04:24:22;100297.34;;;1.19;63.41
65131;BME280;51709;54.912;8.316;2023-03-11T04:29:43;100299.84;;;1.11;63.52
65131;BME280;51709;54.912;8.316;2023-03-11T04:35:04;100306.56;;;1.09;63.08
65131;BME280;51709;54.912;8.316;2023-03-11T04:40:25;100306.56;;;1.12;62.87
65131;BME280;51709;54.912;8.316;2023-03-11T04:45:48;100318.38;;;1.13;62.49
65131;BME280;51709;54.912;8.316;2023-03-11T04:51:10;100324.31;;;1.18;62.39
65131;BME280;51709;54.912;8.316;2023-03-11T04:56:30;100320.94;;;1.15;62.41
65131;BME280;51709;54.912;8.316;2023-03-11T05:01:51;100323.41;;;1.13;62.13
65131;BME280;51709;54.912;8.316;2023-03-11T05:07:13;100331.00;;;1.10;62.01
65131;BME280;51709;54.912;8.316;2023-03-11T05:12:33;100341.94;;;1.11;61.97
65131;BME280;51709;54.912;8.316;2023-03-11T05:17:56;100335.25;;;1.16;61.65
65131;BME280;51709;54.912;8.316;2023-03-11T05:23:17;100336.09;;;1.16;61.81
65131;BME280;51709;54.912;8.316;2023-03-11T05:28:37;100347.06;;;1.20;61.48
65131;BME280;51709;54.912;8.316;2023-03-11T05:33:59;100348.81;;;1.22;61.33
65131;BME280;51709;54.912;8.316;2023-03-11T05:39:20;100354.69;;;1.25;61.42
65131;BME280;51709;54.912;8.316;2023-03-11T05:44:41;100357.25;;;1.26;61.25
65131;BME280;51709;54.912;8.316;2023-03-11T05:50:02;100359.84;;;1.31;60.96
65131;BME280;51709;54.912;8.316;2023-03-11T05:55:23;100359.91;;;1.38;60.86
65131;BME280;51709;54.912;8.316;2023-03-11T06:00:44;100363.31;;;1.42;61.04
65131;BME280;51709;54.912;8.316;2023-03-11T06:06:06;100374.31;;;1.49;60.95
65131;BME280;51709;54.912;8.316;2023-03-11T06:11:27;100374.34;;;1.53;60.81
65131;BME280;51709;54.912;8.316;2023-03-11T06:16:48;100376.09;;;1.59;60.82
65131;BME280;51709;54.912;8.316;2023-03-11T06:22:10;100374.47;;;1.67;60.61
65131;BME280;51709;54.912;8.316;2023-03-11T06:27:31;100381.28;;;1.75;60.52
65131;BME280;51709;54.912;8.316;2023-03-11T06:32:52;100382.22;;;1.86;60.47
65131;BME280;51709;54.912;8.316;2023-03-11T06:38:14;100389.84;;;1.97;60.30
65131;BME280;51709;54.912;8.316;2023-03-11T06:43:35;100389.94;;;2.08;60.24
65131;BME280;51709;54.912;8.316;2023-03-11T06:48:57;100399.31;;;2.21;60.00
65131;BME280;51709;54.912;8.316;2023-03-11T06:54:18;100400.19;;;2.31;60.27
65131;BME280;51709;54.912;8.316;2023-03-11T06:59:38;100407.88;;;2.43;60.05
65131;BME280;51709;54.912;8.316;2023-03-11T07:05:01;100407.97;;;2.62;59.90
65131;BME280;51709;54.912;8.316;2023-03-11T07:10:23;100412.25;;;2.78;59.63
65131;BME280;51709;54.912;8.316;2023-03-11T07:15:44;100423.28;;;2.95;59.67
65131;BME280;51709;54.912;8.316;2023-03-11T07:21:06;100431.81;;;3.15;59.49
65131;BME280;51709;54.912;8.316;2023-03-11T07:26:28;100433.53;;;3.36;59.19
65131;BME280;51709;54.912;8.316;2023-03-11T07:31:49;100438.66;;;3.53;58.95
65131;BME280;51709;54.912;8.316;2023-03-11T07:37:10;100442.06;;;3.57;59.18
65131;BME280;51709;54.912;8.316;2023-03-11T07:42:30;100456.44;;;3.70;58.74
65131;BME280;51709;54.912;8.316;2023-03-11T07:47:53;100457.28;;;3.94;58.35
65131;BME280;51709;54.912;8.316;2023-03-11T07:53:14;100453.09;;;4.03;58.29
65131;BME280;51709;54.912;8.316;2023-03-11T07:58:34;100463.22;;;4.12;58.10
65131;BME280;51709;54.912;8.316;2023-03-11T08:03:55;100465.78;;;4.12;57.87
65131;BME280;51709;54.912;8.316;2023-03-11T08:09:18;100486.94;;;4.17;57.92
65131;BME280;51709;54.912;8.316;2023-03-11T08:14:38;100473.38;;;4.24;57.69
65131;BME280;51709;54.912;8.316;2023-03-11T08:19:59;100490.31;;;4.27;57.08
65131;BME280;51709;54.912;8.316;2023-03-11T08:25:20;100496.22;;;4.38;56.50
65131;BME280;51709;54.912;8.316;2023-03-11T08:30:41;100505.50;;;4.64;56.01
65131;BME280;51709;54.912;8.316;2023-03-11T08:36:02;100496.16;;;4.68;56.01
65131;BME280;51709;54.912;8.316;2023-03-11T08:41:23;100497.84;;;4.73;55.90
65131;BME280;51709;54.912;8.316;2023-03-11T08:46:44;100497.00;;;4.81;55.65
65131;BME280;51709;54.912;8.316;2023-03-11T08:52:05;100493.53;;;4.97;55.40
65131;BME280;51709;54.912;8.316;2023-03-11T08:57:25;100501.06;;;5.23;54.77
65131;BME280;51709;54.912;8.316;2023-03-11T09:02:46;100501.00;;;5.40;54.28
65131;BME280;51709;54.912;8.316;2023-03-11T09:08:07;100494.94;;;5.62;53.82
65131;BME280;51709;54.912;8.316;2023-03-11T09:13:27;100494.75;;;5.90;53.74
65131;BME280;51709;54.912;8.316;2023-03-11T09:18:48;100508.28;;;6.01;53.55
65131;BME280;51709;54.912;8.316;2023-03-11T09:24:09;100506.53;;;6.06;53.42
65131;BME280;51709;54.912;8.316;2023-03-11T09:29:29;100513.19;;;6.24;53.05
65131;BME280;51709;54.912;8.316;2023-03-11T09:34:49;100516.44;;;6.42;52.77
65131;BME280;51709;54.912;8.316;2023-03-11T09:40:14;100510.25;;;6.68;52.40
65131;BME280;51709;54.912;8.316;2023-03-11T09:45:40;100501.34;;;7.04;51.71
65131;BME280;51709;54.912;8.316;2023-03-11T09:56:33;100518.38;;;7.02;52.67
65131;BME280;51709;54.912;8.316;2023-03-11T10:01:54;100525.66;;;7.32;52.67
65131;BME280;51709;54.912;8.316;2023-03-11T10:07:19;100517.59;;;7.64;52.25
65131;BME280;51709;54.912;8.316;2023-03-11T10:18:25;100506.31;;;7.14;54.40
65131;BME280;51709;54.912;8.316;2023-03-11T10:24:00;100511.31;;;7.24;54.45
65131;BME280;51709;54.912;8.316;2023-03-11T10:29:39;100509.78;;;7.11;55.03
65131;BME280;51709;54.912;8.316;2023-03-11T10:35:15;100510.09;;;7.52;53.88
65131;BME280;51709;54.912;8.316;2023-03-11T10:40:40;100510.06;;;8.13;52.54
65131;BME280;51709;54.912;8.316;2023-03-11T10:46:08;100517.31;;;8.36;52.34
65131;BME280;51709;54.912;8.316;2023-03-11T10:51:34;100519.00;;;11.37;46.93
65131;BME280;51709;54.912;8.316;2023-03-11T10:57:01;100509.75;;;17.50;35.59
65131;BME280;51709;54.912;8.316;2023-03-11T11:02:33;100517.00;;;20.96;30.71
65131;BME280;51709;54.912;8.316;2023-03-11T11:13:25;100565.31;;;8.75;52.09
65131;BME280;51709;54.912;8.316;2023-03-11T11:18:49;100542.34;;;5.81;58.07
65131;BME280;51709;54.912;8.316;2023-03-11T11:24:26;100538.44;;;5.09;59.31
65131;BME280;51709;54.912;8.316;2023-03-11T11:30:02;100526.91;;;10.68;47.86
65131;BME280;51709;54.912;8.316;2023-03-11T11:35:25;100515.44;;;19.06;33.00
65131;BME280;51709;54.912;8.316;2023-03-11T11:40:45;100528.16;;;12.81;43.71
65131;BME280;51709;54.912;8.316;2023-03-11T11:46:12;100500.78;;;9.44;51.20
65131;BME280;51709;54.912;8.316;2023-03-11T11:51:59;100501.59;;;9.46;51.27
65131;BME280;51709;54.912;8.316;2023-03-11T11:57:22;100527.63;;;9.25;50.87
65131;BME280;51709;54.912;8.316;2023-03-11T12:03:07;100522.25;;;6.55;57.21
65131;BME280;51709;54.912;8.316;2023-03-11T12:08:38;100521.47;;;5.06;59.95
65131;BME280;51709;54.912;8.316;2023-03-11T12:14:15;100523.31;;;4.58;60.86
65131;BME280;51709;54.912;8.316;2023-03-11T12:20:21;100520.75;;;4.48;60.40
65131;BME280;51709;54.912;8.316;2023-03-11T12:25:57;100495.31;;;4.72;59.52
65131;BME280;51709;54.912;8.316;2023-03-11T12:31:23;100489.84;;;5.63;57.79
65131;BME280;51709;54.912;8.316;2023-03-11T12:36:45;100488.59;;;7.67;53.88
65131;BME280;51709;54.912;8.316;2023-03-11T12:42:14;100479.44;;;6.86;57.28
65131;BME280;51709;54.912;8.316;2023-03-11T12:47:36;100472.25;;;8.32;55.18
65131;BME280;51709;54.912;8.316;2023-03-11T12:52:57;100465.28;;;13.77;42.87
65131;BME280;51709;54.912;8.316;2023-03-11T13:04:17;100472.31;;;6.37;59.28
65131;BME280;51709;54.912;8.316;2023-03-11T13:09:40;100463.31;;;5.92;60.34
65131;BME280;51709;54.912;8.316;2023-03-11T13:26:16;100443.31;;;17.78;36.63
65131;BME280;51709;54.912;8.316;2023-03-11T13:32:02;100461.47;;;20.94;31.14
65131;BME280;51709;54.912;8.316;2023-03-11T13:38:10;100475.09;;;15.85;38.57
65131;BME280;51709;54.912;8.316;2023-03-11T13:43:33;100470.03;;;9.45;49.71
65131;BME280;51709;54.912;8.316;2023-03-11T13:49:01;100484.72;;;12.46;44.01
65131;BME280;51709;54.912;8.316;2023-03-11T13:54:34;100490.06;;;9.65;48.03
65131;BME280;51709;54.912;8.316;2023-03-11T14:00:04;100479.41;;;8.11;51.79
65131;BME280;51709;54.912;8.316;2023-03-11T14:05:35;100512.44;;;6.14;56.22
65131;BME280;51709;54.912;8.316;2023-03-11T14:11:16;100478.06;;;5.47;58.52
65131;BME280;51709;54.912;8.316;2023-03-11T14:16:37;100510.16;;;5.71;57.44
65131;BME280;51709;54.912;8.316;2023-03-11T14:22:06;100511.09;;;6.68;55.64
65131;BME280;51709;54.912;8.316;2023-03-11T14:27:27;100515.59;;;6.41;56.46
65131;BME280;51709;54.912;8.316;2023-03-11T14:32:56;100506.41;;;6.22;57.25
65131;BME280;51709;54.912;8.316;2023-03-11T14:38:22;100492.06;;;6.14;57.42
65131;BME280;51709;54.912;8.316;2023-03-11T14:43:48;100514.28;;;5.88;57.92
65131;BME280;51709;54.912;8.316;2023-03-11T14:49:17;100522.34;;;5.07;60.32
65131;BME280;51709;54.912;8.316;2023-03-11T14:54:40;100518.97;;;4.97;61.23
65131;BME280;51709;54.912;8.316;2023-03-11T15:00:02;100530.00;;;5.02;61.02
65131;BME280;51709;54.912;8.316;2023-03-11T15:05:34;100525.84;;;4.56;62.37
65131;BME280;51709;54.912;8.316;2023-03-11T15:11:02;100518.25;;;4.25;63.82
65131;BME280;51709;54.912;8.316;2023-03-11T15:16:32;100499.63;;;3.97;64.72
65131;BME280;51709;54.912;8.316;2023-03-11T15:22:06;100521.59;;;3.79;65.29
65131;BME280;51709;54.912;8.316;2023-03-11T15:27:40;100501.31;;;4.32;64.00
65131;BME280;51709;54.912;8.316;2023-03-11T15:33:01;100527.56;;;4.39;64.12
65131;BME280;51709;54.912;8.316;2023-03-11T15:38:39;100526.66;;;4.75;63.19
65131;BME280;51709;54.912;8.316;2023-03-11T15:43:59;100544.31;;;5.33;61.86
65131;BME280;51709;54.912;8.316;2023-03-11T15:49:22;100546.97;;;4.92;63.24
65131;BME280;51709;54.912;8.316;2023-03-11T15:54:43;100550.41;;;4.53;64.45
65131;BME280;51709;54.912;8.316;2023-03-11T16:00:22;100537.72;;;4.40;64.74
65131;BME280;51709;54.912;8.316;2023-03-11T16:05:43;100560.56;;;4.29;64.75
65131;BME280;51709;54.912;8.316;2023-03-11T16:11:04;100557.19;;;4.13;65.01
65131;BME280;51709;54.912;8.316;2023-03-11T16:16:25;100560.56;;;4.06;65.10
65131;BME280;51709;54.912;8.316;2023-03-11T16:21:46;100557.19;;;3.98;65.34
65131;BME280;51709;54.912;8.316;2023-03-11T16:27:13;100572.41;;;3.95;65.40
65131;BME280;51709;54.912;8.316;2023-03-11T16:32:34;100568.19;;;3.97;65.38
65131;BME280;51709;54.912;8.316;2023-03-11T16:37:55;100571.56;;;3.97;65.06
65131;BME280;51709;54.912;8.316;2023-03-11T16:43:15;100574.13;;;4.05;65.04
65131;BME280;51709;54.912;8.316;2023-03-11T16:48:36;100584.31;;;4.28;64.52
65131;BME280;51709;54.912;8.316;2023-03-11T16:53:57;100591.91;;;4.73;63.92
65131;BME280;51709;54.912;8.316;2023-03-11T16:59:17;100602.06;;;4.53;64.28
65131;BME280;51709;54.912;8.316;2023-03-11T17:04:38;100600.41;;;4.37;64.67
65131;BME280;51709;54.912;8.316;2023-03-11T17:09:59;100595.31;;;4.29;64.39
65131;BME280;51709;54.912;8.316;2023-03-11T17:15:20;100612.22;;;4.13;64.36
65131;BME280;51709;54.912;8.316;2023-03-11T17:20:40;100618.94;;;4.00;64.40
65131;BME280;51709;54.912;8.316;2023-03-11T17:26:07;100636.72;;;3.98;64.17
65131;BME280;51709;54.912;8.316;2023-03-11T17:31:28;100643.47;;;3.92;64.15
65131;BME280;51709;54.912;8.316;2023-03-11T17:36:49;100646.00;;;3.82;64.30
65131;BME280;51709;54.912;8.316;2023-03-11T17:42:09;100650.19;;;3.76;64.42
65131;BME280;51709;54.912;8.316;2023-03-11T17:47:31;100651.03;;;3.73;64.20
65131;BME280;51709;54.912;8.316;2023-03-11T17:52:52;100666.22;;;3.65;64.60
65131;BME280;51709;54.912;8.316;2023-03-11T17:58:13;100669.59;;;3.60;64.66
65131;BME280;51709;54.912;8.316;2023-03-11T18:03:33;100674.63;;;3.55;64.74
65131;BME280;51709;54.912;8.316;2023-03-11T18:08:54;100678.00;;;3.52;64.46
65131;BME280;51709;54.912;8.316;2023-03-11T18:14:15;100694.06;;;3.50;64.61
65131;BME280;51709;54.912;8.316;2023-03-11T18:19:36;100692.31;;;3.41;64.74
65131;BME280;51709;54.912;8.316;2023-03-11T18:24:57;100682.09;;;3.29;64.90
65131;BME280;51709;54.912;8.316;2023-03-11T18:30:17;100685.41;;;3.15;65.05
65131;BME280;51709;54.912;8.316;2023-03-11T18:35:37;100688.72;;;3.10;65.04
65131;BME280;51709;54.912;8.316;2023-03-11T18:40:58;100697.94;;;3.01;65.03
65131;BME280;51709;54.912;8.316;2023-03-11T18:46:18;100714.03;;;3.03;65.07
65131;BME280;51709;54.912;8.316;2023-03-11T18:51:39;100726.81;;;3.14;64.99
65131;BME280;51709;54.912;8.316;2023-03-11T18:57:00;100723.28;;;2.98;65.35
65131;BME280;51709;54.912;8.316;2023-03-11T19:02:20;100728.28;;;2.90;65.70
65131;BME280;51709;54.912;8.316;2023-03-11T19:07:41;100725.00;;;3.01;65.42
65131;BME280;51709;54.912;8.316;2023-03-11T19:13:01;100728.41;;;3.06;65.11
65131;BME280;51709;54.912;8.316;2023-03-11T19:18:22;100731.91;;;3.20;64.84
65131;BME280;51709;54.912;8.316;2023-03-11T19:23:44;100734.50;;;3.27;64.64
65131;BME280;51709;54.912;8.316;2023-03-11T19:29:07;100740.44;;;3.29;64.47
65131;BME280;51709;54.912;8.316;2023-03-11T19:34:27;100754.75;;;3.25;64.42
65131;BME280;51709;54.912;8.316;2023-03-11T19:39:48;100764.88;;;3.20;64.24
65131;BME280;51709;54.912;8.316;2023-03-11T19:45:09;100751.28;;;3.14;64.06
65131;BME280;51709;54.912;8.316;2023-03-11T19:50:30;100764.72;;;3.02;63.38
65131;BME280;51709;54.912;8.316;2023-03-11T19:55:52;100762.16;;;2.99;63.28
65131;BME280;51709;54.912;8.316;2023-03-11T20:01:17;100758.78;;;2.98;62.97
65131;BME280;51709;54.912;8.316;2023-03-11T20:06:37;100778.19;;;2.96;62.38
65131;BME280;51709;54.912;8.316;2023-03-11T20:11:58;100788.31;;;2.93;62.07
65131;BME280;51709;54.912;8.316;2023-03-11T20:17:19;100784.91;;;2.91;61.73
65131;BME280;51709;54.912;8.316;2023-03-11T20:22:40;100792.53;;;2.92;61.39
65131;BME280;51709;54.912;8.316;2023-03-11T20:28:00;100784.91;;;2.91;60.93
65131;BME280;51709;54.912;8.316;2023-03-11T20:33:21;100792.50;;;2.88;60.98
65131;BME280;51709;54.912;8.316;2023-03-11T20:38:42;100792.50;;;2.88;60.79
65131;BME280;51709;54.912;8.316;2023-03-11T20:44:04;100787.44;;;2.88;60.60
65131;BME280;51709;54.912;8.316;2023-03-11T20:49:25;100805.16;;;2.88;60.39
65131;BME280;51709;54.912;8.316;2023-03-11T20:54:46;100797.56;;;2.88;60.18
65131;BME280;51709;54.912;8.316;2023-03-11T21:00:09;100803.47;;;2.88;59.62
65131;BME280;51709;54.912;8.316;2023-03-11T21:05:34;100812.75;;;2.86;59.62
65131;BME280;51709;54.912;8.316;2023-03-11T21:10:59;100814.44;;;2.86;59.15
65131;BME280;51709;54.912;8.316;2023-03-11T21:16:21;100827.94;;;2.86;58.65
65131;BME280;51709;54.912;8.316;2023-03-11T21:21:41;100820.31;;;2.83;58.24
65131;BME280;51709;54.912;8.316;2023-03-11T21:27:02;100826.19;;;2.81;58.13
65131;BME280;51709;54.912;8.316;2023-03-11T21:32:24;100827.06;;;2.81;57.83
65131;BME280;51709;54.912;8.316;2023-03-11T21:37:45;100834.66;;;2.83;57.71
65131;BME280;51709;54.912;8.316;2023-03-11T21:43:06;100836.41;;;2.88;57.19
65131;BME280;51709;54.912;8.316;2023-03-11T21:48:28;100824.69;;;2.98;56.67
65131;BME280;51709;54.912;8.316;2023-03-11T21:53:48;100835.81;;;3.13;56.71
65131;BME280;51709;54.912;8.316;2023-03-11T21:59:09;100829.09;;;3.18;56.77
65131;BME280;51709;54.912;8.316;2023-03-11T22:04:30;100834.19;;;3.19;56.95
65131;BME280;51709;54.912;8.316;2023-03-11T22:09:51;100833.38;;;3.25;56.70
65131;BME280;51709;54.912;8.316;2023-03-11T22:15:13;100841.84;;;3.26;56.83
65131;BME280;51709;54.912;8.316;2023-03-11T22:20:33;100842.72;;;3.28;56.86
65131;BME280;51709;54.912;8.316;2023-03-11T22:25:54;100851.94;;;3.19;56.92
65131;BME280;51709;54.912;8.316;2023-03-11T22:31:15;100851.06;;;3.14;56.65
65131;BME280;51709;54.912;8.316;2023-03-11T22:36:38;100855.22;;;3.07;56.50
65131;BME280;51709;54.912;8.316;2023-03-11T22:41:58;100856.88;;;3.07;56.34
65131;BME280;51709;54.912;8.316;2023-03-11T22:47:19;100858.56;;;3.06;56.00
65131;BME280;51709;54.912;8.316;2023-03-11T22:52:39;100867.06;;;3.10;55.73
65131;BME280;51709;54.912;8.316;2023-03-11T22:58:00;100857.78;;;3.11;55.36
65131;BME280;51709;54.912;8.316;2023-03-11T23:03:22;100863.69;;;3.13;55.49
65131;BME280;51709;54.912;8.316;2023-03-11T23:08:43;100864.56;;;3.13;55.17
65131;BME280;51709;54.912;8.316;2023-03-11T23:14:04;100872.19;;;3.15;54.87
65131;BME280;51709;54.912;8.316;2023-03-11T23:19:25;100869.69;;;3.19;54.69
65131;BME280;51709;54.912;8.316;2023-03-11T23:24:45;100871.41;;;3.22;54.95
65131;BME280;51709;54.912;8.316;2023-03-11T23:30:07;100868.88;;;3.22;54.62
65131;BME280;51709;54.912;8.316;2023-03-11T23:35:29;100866.34;;;3.23;54.63
65131;BME280;51709;54.912;8.316;2023-03-11T23:40:49;100870.59;;;3.24;54.47
65131;BME280;51709;54.912;8.316;2023-03-11T23:46:10;100864.66;;;3.24;54.42
65131;BME280;51709;54.912;8.316;2023-03-11T23:51:31;100879.06;;;3.27;54.33
65131;BME280;51709;54.912;8.316;2023-03-11T23:56:52;100878.25;;;3.31;54.07
